Time;durP1;ratioP1;P1;durP2;ratioP2;P2;SDS_P1;SDS_P2;PMS_P1;PMS_P2;Temp;Humidity;BMP_temperature;BMP_pressure;BME280_temperature;BME280_humidity;BME280_pressure;Samples;Min_cycle;Max_cycle;Signal;HPM_P1;HPM_P2
2021/04/08 00:01:23;;;;;;;19.87;18.80;;;3.50;99.90;;;;;;5134816;27;20520;-69
2021/04/08 00:03:49;;;;;;;20.97;19.53;;;3.30;99.90;;;;;;5132827;27;20849;-69
2021/04/08 00:06:16;;;;;;;20.40;19.40;;;3.20;99.90;;;;;;5132791;27;20453;-67
2021/04/08 00:08:42;;;;;;;22.00;20.70;;;3.20;99.90;;;;;;5132447;27;20450;-68
2021/04/08 00:11:09;;;;;;;22.73;21.00;;;3.10;99.90;;;;;;5132659;27;20479;-68
2021/04/08 00:13:35;;;;;;;22.80;21.70;;;3.20;99.90;;;;;;5132488;27;20443;-69
2021/04/08 00:16:02;;;;;;;22.10;20.70;;;3.10;99.90;;;;;;5132356;27;20847;-68
2021/04/08 00:18:29;;;;;;;22.40;20.83;;;3.10;99.90;;;;;;5132508;27;20844;-68
2021/04/08 00:20:55;;;;;;;22.20;20.87;;;3.10;99.90;;;;;;5132498;27;20954;-69
2021/04/08 00:23:21;;;;;;;20.77;19.57;;;3.10;99.90;;;;;;5132029;27;20445;-69
2021/04/08 00:25:48;;;;;;;20.90;19.50;;;3.20;99.90;;;;;;5132534;27;20445;-69
2021/04/08 00:28:14;;;;;;;21.03;19.93;;;3.10;99.90;;;;;;5132447;27;21013;-69
2021/04/08 00:30:43;;;;;;;19.97;18.77;;;3.10;99.90;;;;;;5132317;27;20458;-69
2021/04/08 00:33:10;;;;;;;21.07;19.83;;;3.10;99.90;;;;;;5131989;27;20455;-70
2021/04/08 00:35:38;;;;;;;19.53;18.63;;;3.00;99.90;;;;;;5132147;27;20526;-70
2021/04/08 00:38:05;;;;;;;20.70;19.50;;;3.00;99.90;;;;;;5131952;27;20445;-70
2021/04/08 00:40:31;;;;;;;20.67;19.50;;;3.00;99.90;;;;;;5132223;28;20452;-70
2021/04/08 00:42:58;;;;;;;19.50;18.50;;;3.10;99.90;;;;;;5132287;27;20451;-71
2021/04/08 00:45:24;;;;;;;18.57;17.73;;;3.10;99.90;;;;;;5132087;27;20956;-70
2021/04/08 00:47:51;;;;;;;19.93;18.80;;;3.10;99.90;;;;;;5132035;28;20449;-71
2021/04/08 00:50:18;;;;;;;18.93;17.93;;;3.20;99.90;;;;;;5131903;27;20448;-71
2021/04/08 00:52:53;;;;;;;19.87;18.77;;;3.20;99.90;;;;;;5132651;28;20783;-71
2021/04/08 00:55:22;;;;;;;19.30;18.10;;;3.20;99.90;;;;;;5132185;27;20475;-71
2021/04/08 00:57:48;;;;;;;18.50;17.23;;;3.30;99.90;;;;;;5131972;27;20464;-71
2021/04/08 01:00:15;;;;;;;18.87;17.70;;;3.30;99.90;;;;;;5131637;28;20449;-71
2021/04/08 01:02:41;;;;;;;19.60;18.50;;;3.30;99.90;;;;;;5132065;27;20453;-71
2021/04/08 01:05:10;;;;;;;18.77;17.77;;;3.30;99.90;;;;;;5131874;28;20490;-71
2021/04/08 01:07:38;;;;;;;19.07;17.60;;;3.40;99.90;;;;;;5132246;27;20444;-70
2021/04/08 01:10:07;;;;;;;17.70;16.83;;;3.40;99.90;;;;;;5131518;27;21042;-71
2021/04/08 01:12:33;;;;;;;18.03;17.20;;;3.40;99.90;;;;;;5131850;27;20444;-72
2021/04/08 01:15:00;;;;;;;18.93;17.77;;;3.50;99.90;;;;;;5131890;27;20490;-71
2021/04/08 01:17:35;;;;;;;18.43;17.53;;;3.60;99.90;;;;;;5131764;27;20464;-72
2021/04/08 01:20:46;;;;;;;18.10;17.30;;;3.70;99.90;;;;;;5131467;27;20483;-71
2021/04/08 01:23:52;;;;;;;18.97;17.67;;;3.60;99.90;;;;;;5131610;28;20447;-71
2021/04/08 01:26:43;;;;;;;17.97;17.00;;;3.60;99.90;;;;;;5131749;27;20849;-71
2021/04/08 01:29:15;;;;;;;16.30;15.60;;;3.60;99.90;;;;;;5131776;27;20441;-71
2021/04/08 01:31:45;;;;;;;16.70;15.70;;;3.60;99.90;;;;;;5131531;28;20446;-70
2021/04/08 01:34:15;;;;;;;16.87;16.17;;;3.70;99.90;;;;;;5131609;27;20436;-69
2021/04/08 01:36:43;;;;;;;16.60;15.73;;;3.70;99.90;;;;;;5131702;27;20458;-70
2021/04/08 01:39:14;;;;;;;16.63;15.83;;;3.70;99.90;;;;;;5131527;27;20514;-70
2021/04/08 01:41:44;;;;;;;15.40;14.60;;;3.70;99.90;;;;;;5131620;27;20455;-70
2021/04/08 01:44:16;;;;;;;15.60;14.70;;;3.70;99.90;;;;;;5131347;27;20465;-70
2021/04/08 01:46:48;;;;;;;16.10;15.10;;;3.80;99.90;;;;;;5133727;27;20448;-70
2021/04/08 01:49:18;;;;;;;15.20;14.40;;;3.80;99.90;;;;;;5135274;27;20460;-70
2021/04/08 01:51:45;;;;;;;14.87;13.87;;;3.90;99.90;;;;;;5135311;27;20448;-70
2021/04/08 01:54:14;;;;;;;14.20;13.33;;;4.00;99.90;;;;;;5134858;27;20452;-71
2021/04/08 01:56:42;;;;;;;14.27;13.57;;;4.00;99.90;;;;;;5135294;27;20452;-71
2021/04/08 01:59:13;;;;;;;14.40;13.50;;;4.10;99.90;;;;;;5134919;27;20805;-71
2021/04/08 02:01:43;;;;;;;15.33;14.63;;;4.10;99.90;;;;;;5135015;27;20508;-71
2021/04/08 02:04:11;;;;;;;12.87;12.17;;;4.10;99.90;;;;;;5134795;27;20449;-71
2021/04/08 02:06:40;;;;;;;13.80;12.93;;;4.10;99.90;;;;;;5134914;27;20440;-71
2021/04/08 02:09:07;;;;;;;14.13;13.37;;;4.00;99.90;;;;;;5134784;27;20447;-71
2021/04/08 02:11:34;;;;;;;14.57;13.57;;;4.00;99.90;;;;;;5134792;27;20448;-72
2021/04/08 02:14:01;;;;;;;14.70;13.60;;;4.00;99.90;;;;;;5134463;27;20451;-71
2021/04/08 02:16:28;;;;;;;12.40;11.67;;;4.00;99.90;;;;;;5134977;27;20472;-72
2021/04/08 02:18:58;;;;;;;13.47;12.77;;;4.00;99.90;;;;;;5134375;27;20472;-72
2021/04/08 02:21:26;;;;;;;13.03;12.30;;;4.00;99.90;;;;;;5134667;27;20436;-71
2021/04/08 02:23:52;;;;;;;13.50;12.63;;;3.90;99.90;;;;;;5134453;27;20453;-71
2021/04/08 02:26:20;;;;;;;13.07;12.37;;;4.00;99.90;;;;;;5134326;27;20577;-71
2021/04/08 02:28:47;;;;;;;13.23;12.53;;;4.00;99.90;;;;;;5134473;27;20490;-70
2021/04/08 02:31:14;;;;;;;13.67;12.53;;;3.90;99.90;;;;;;5134368;27;20517;-70
2021/04/08 02:33:41;;;;;;;12.97;12.27;;;3.90;99.90;;;;;;5134452;27;20505;-70
2021/04/08 02:36:08;;;;;;;13.67;13.00;;;3.90;99.90;;;;;;5134073;27;20554;-70
2021/04/08 02:38:35;;;;;;;13.60;12.80;;;3.90;99.90;;;;;;5134186;27;20448;-72
2021/04/08 02:41:04;;;;;;;12.80;12.10;;;3.90;99.90;;;;;;5134586;27;20936;-70
2021/04/08 02:43:30;;;;;;;13.50;12.70;;;3.80;99.90;;;;;;5134339;27;20450;-70
2021/04/08 02:45:57;;;;;;;13.10;12.40;;;3.90;99.90;;;;;;5133965;27;20490;-71
2021/04/08 02:48:24;;;;;;;12.50;11.90;;;3.90;99.90;;;;;;5133991;27;21004;-71
2021/04/08 02:50:52;;;;;;;13.20;12.50;;;3.90;99.90;;;;;;5138096;27;20448;-71
2021/04/08 02:53:24;;;;;;;13.70;12.53;;;4.00;99.90;;;;;;5139152;27;20444;-71
2021/04/08 02:55:54;;;;;;;12.53;11.87;;;3.90;99.90;;;;;;5133793;27;20483;-71
2021/04/08 02:58:23;;;;;;;13.63;12.93;;;3.90;99.90;;;;;;5133235;27;20456;-70
2021/04/08 03:00:53;;;;;;;12.87;12.27;;;3.90;99.90;;;;;;5133860;27;20575;-73
2021/04/08 03:03:24;;;;;;;13.30;12.70;;;4.00;99.90;;;;;;5133736;27;20457;-73
2021/04/08 03:05:52;;;;;;;13.20;12.60;;;3.90;99.90;;;;;;5133667;27;20651;-72
2021/04/08 03:08:19;;;;;;;13.77;13.00;;;3.90;99.90;;;;;;5133599;27;20502;-72
2021/04/08 03:10:48;;;;;;;14.23;13.20;;;3.90;99.90;;;;;;5133739;27;20441;-72
2021/04/08 03:13:16;;;;;;;13.50;12.70;;;3.90;99.90;;;;;;5133606;27;20539;-72
2021/04/08 03:15:44;;;;;;;13.40;12.70;;;3.90;99.90;;;;;;5133526;27;20497;-72
2021/04/08 03:18:14;;;;;;;14.47;13.60;;;4.00;99.90;;;;;;5133145;27;20822;-72
2021/04/08 03:20:41;;;;;;;12.07;11.37;;;4.10;99.90;;;;;;5133556;27;20495;-72
2021/04/08 03:23:12;;;;;;;14.27;13.60;;;4.20;99.90;;;;;;5133274;27;20952;-71
2021/04/08 03:25:39;;;;;;;13.53;12.73;;;4.10;99.90;;;;;;5133017;27;20867;-71
2021/04/08 03:28:08;;;;;;;13.70;12.93;;;4.10;99.90;;;;;;5133278;27;20448;-70
2021/04/08 03:30:40;;;;;;;13.90;13.10;;;4.10;99.90;;;;;;5133247;27;20437;-70
2021/04/08 03:33:06;;;;;;;12.80;12.20;;;4.00;99.90;;;;;;5133251;27;20810;-71
2021/04/08 03:35:34;;;;;;;12.97;12.37;;;3.90;99.90;;;;;;5133166;27;20557;-70
2021/04/08 03:38:00;;;;;;;12.30;11.70;;;3.90;99.90;;;;;;5132908;27;20990;-70
2021/04/08 03:40:26;;;;;;;13.10;12.40;;;3.90;99.90;;;;;;5133297;27;20732;-71
2021/04/08 03:42:54;;;;;;;13.47;12.67;;;3.90;99.90;;;;;;5133115;27;20453;-71
2021/04/08 03:45:21;;;;;;;14.13;13.13;;;3.90;99.90;;;;;;5132916;27;20871;-69
2021/04/08 03:47:48;;;;;;;14.40;13.40;;;3.90;99.90;;;;;;5132867;27;20452;-70
2021/04/08 03:50:16;;;;;;;13.40;12.60;;;3.80;99.90;;;;;;5132885;27;20551;-70
2021/04/08 03:52:44;;;;;;;14.67;13.93;;;3.80;99.90;;;;;;5132643;27;20453;-69
2021/04/08 03:55:11;;;;;;;14.03;13.33;;;3.90;99.90;;;;;;5132798;27;20476;-71
2021/04/08 03:57:41;;;;;;;14.63;13.57;;;4.00;99.90;;;;;;5132817;27;20457;-70
2021/04/08 04:00:08;;;;;;;13.70;13.00;;;4.00;99.90;;;;;;5132665;27;20502;-71
2021/04/08 04:02:37;;;;;;;13.60;12.87;;;4.00;99.90;;;;;;5132418;27;20442;-73
2021/04/08 04:05:05;;;;;;;13.93;13.23;;;4.00;99.90;;;;;;5132450;27;20521;-72
2021/04/08 04:07:33;;;;;;;11.67;11.03;;;3.90;99.90;;;;;;5132511;27;20445;-70
2021/04/08 04:10:00;;;;;;;14.50;13.43;;;3.90;99.90;;;;;;5131758;27;20456;-71
2021/04/08 04:12:27;;;;;;;14.70;13.70;;;3.80;99.90;;;;;;5132535;27;20484;-71
2021/04/08 04:14:54;;;;;;;12.97;12.17;;;3.90;99.90;;;;;;5132274;27;20475;-71
2021/04/08 04:17:27;;;;;;;14.27;13.57;;;3.80;99.90;;;;;;5132211;27;20464;-72
2021/04/08 04:19:55;;;;;;;13.77;12.63;;;3.80;99.90;;;;;;5132504;27;20472;-71
2021/04/08 04:22:22;;;;;;;14.60;13.90;;;3.90;99.90;;;;;;5132222;27;20478;-73
2021/04/08 04:24:48;;;;;;;14.27;13.10;;;3.70;99.90;;;;;;5132144;27;20505;-71
2021/04/08 04:27:14;;;;;;;13.00;12.30;;;3.70;99.90;;;;;;5132249;27;20443;-71
2021/04/08 04:29:41;;;;;;;13.13;12.40;;;3.70;99.90;;;;;;5132333;27;20452;-70
2021/04/08 04:32:09;;;;;;;12.90;12.10;;;3.70;99.90;;;;;;5131967;27;20462;-71
2021/04/08 04:34:35;;;;;;;13.07;12.10;;;3.60;99.90;;;;;;5131925;28;20445;-71
2021/04/08 04:37:02;;;;;;;14.30;13.40;;;3.70;99.90;;;;;;5132418;28;20448;-70
2021/04/08 04:39:28;;;;;;;14.13;13.33;;;3.70;99.90;;;;;;5132012;27;20456;-72
2021/04/08 04:41:55;;;;;;;13.63;12.93;;;3.70;99.90;;;;;;5132205;28;20455;-72
2021/04/08 04:44:21;;;;;;;12.77;12.07;;;3.60;99.90;;;;;;5132135;27;20450;-71
2021/04/08 04:46:47;;;;;;;12.30;11.70;;;3.60;99.90;;;;;;5131996;27;20982;-72
2021/04/08 04:49:13;;;;;;;13.40;12.50;;;3.60;99.90;;;;;;5132521;27;20444;-72
2021/04/08 04:51:39;;;;;;;12.47;11.77;;;3.50;99.90;;;;;;5132098;27;20461;-72
2021/04/08 04:54:06;;;;;;;13.67;12.87;;;3.50;99.90;;;;;;5131815;27;20509;-70
2021/04/08 04:56:33;;;;;;;13.73;12.60;;;3.50;99.90;;;;;;5131829;27;20476;-70
2021/04/08 04:58:59;;;;;;;12.80;12.10;;;3.50;99.90;;;;;;5132227;28;20455;-70
2021/04/08 05:01:25;;;;;;;12.17;11.57;;;3.50;99.90;;;;;;5131896;27;20449;-70
2021/04/08 05:03:51;;;;;;;12.40;11.80;;;3.60;99.90;;;;;;5131515;27;20925;-70
2021/04/08 05:06:19;;;;;;;12.70;12.00;;;3.70;99.90;;;;;;5131912;27;20443;-70
2021/04/08 05:08:45;;;;;;;12.90;12.40;;;3.80;99.90;;;;;;5131675;27;20483;-71
2021/04/08 05:11:13;;;;;;;12.67;11.77;;;3.80;99.90;;;;;;5132142;28;20845;-70
2021/04/08 05:13:39;;;;;;;14.90;14.10;;;3.90;99.90;;;;;;5131952;27;20441;-70
2021/04/08 05:16:06;;;;;;;12.10;11.40;;;3.90;99.90;;;;;;5131527;27;20489;-71
2021/04/08 05:18:32;;;;;;;13.07;12.10;;;4.00;99.90;;;;;;5131256;27;20475;-72
2021/04/08 05:20:59;;;;;;;12.90;12.23;;;4.10;99.90;;;;;;5134421;27;20843;-72
2021/04/08 05:23:25;;;;;;;11.80;11.03;;;4.20;99.90;;;;;;5135742;27;20449;-71
2021/04/08 05:25:51;;;;;;;13.63;12.83;;;4.20;99.90;;;;;;5135832;27;20448;-72
2021/04/08 05:28:19;;;;;;;13.00;12.40;;;4.30;99.90;;;;;;5135442;27;20453;-69
2021/04/08 05:30:45;;;;;;;12.50;11.63;;;4.30;99.90;;;;;;5135289;27;20448;-71
2021/04/08 05:33:11;;;;;;;11.23;10.43;;;4.20;99.90;;;;;;5135383;27;20440;-70
2021/04/08 05:35:38;;;;;;;12.20;11.50;;;4.20;99.90;;;;;;5135188;27;20804;-71
2021/04/08 05:38:04;;;;;;;13.33;12.50;;;4.20;99.90;;;;;;5134831;27;20785;-70
2021/04/08 05:40:30;;;;;;;11.83;11.27;;;4.30;99.90;;;;;;5135149;27;20455;-69
2021/04/08 05:42:56;;;;;;;13.03;12.00;;;4.40;99.90;;;;;;5137377;27;20553;-70
2021/04/08 05:45:26;;;;;;;13.70;13.03;;;4.40;99.90;;;;;;5137118;27;20442;-69
2021/04/08 05:47:52;;;;;;;14.43;13.53;;;4.50;99.90;;;;;;5135022;27;20480;-69
2021/04/08 05:50:19;;;;;;;12.60;11.80;;;4.60;99.90;;;;;;5135115;27;20446;-70
2021/04/08 05:52:45;;;;;;;13.00;12.30;;;4.70;99.90;;;;;;5135012;27;20466;-69
2021/04/08 05:55:12;;;;;;;15.10;14.03;;;4.80;99.90;;;;;;5135073;27;20483;-70
2021/04/08 05:57:38;;;;;;;14.50;13.60;;;4.90;99.90;;;;;;5134815;27;20477;-71
2021/04/08 06:00:06;;;;;;;13.97;13.00;;;4.80;99.90;;;;;;5134453;27;20456;-70
2021/04/08 06:02:34;;;;;;;14.23;13.13;;;4.90;99.90;;;;;;5134328;27;20453;-72
2021/04/08 06:05:00;;;;;;;12.73;12.03;;;5.00;99.90;;;;;;5134483;27;20463;-71
2021/04/08 06:07:26;;;;;;;13.83;12.93;;;5.10;99.90;;;;;;5134212;27;20497;-71
2021/04/08 06:09:52;;;;;;;13.17;12.17;;;5.10;99.90;;;;;;5134159;27;20450;-71
2021/04/08 06:12:19;;;;;;;13.20;12.20;;;5.20;99.90;;;;;;5133983;27;20509;-71
2021/04/08 06:14:47;;;;;;;14.77;13.50;;;5.30;99.90;;;;;;5133852;27;20451;-71
2021/04/08 06:17:13;;;;;;;15.27;14.37;;;5.50;99.90;;;;;;5133898;27;20491;-70
2021/04/08 06:19:40;;;;;;;12.10;11.30;;;5.70;99.90;;;;;;5133793;27;20568;-71
2021/04/08 06:22:06;;;;;;;13.93;13.03;;;5.80;99.90;;;;;;5133877;27;20454;-70
2021/04/08 06:24:32;;;;;;;13.17;12.27;;;5.90;99.90;;;;;;5133484;27;20973;-72
2021/04/08 06:26:59;;;;;;;12.63;11.83;;;6.10;99.90;;;;;;5133667;27;20458;-73
2021/04/08 06:29:25;;;;;;;13.00;12.10;;;6.40;99.90;;;;;;5133651;27;20447;-72
2021/04/08 06:31:51;;;;;;;13.57;12.87;;;6.70;99.90;;;;;;5132886;27;20448;-72
2021/04/08 06:34:17;;;;;;;12.67;11.87;;;6.70;99.90;;;;;;5133478;27;20451;-72
2021/04/08 06:36:46;;;;;;;12.73;11.93;;;6.90;99.40;;;;;;5133435;27;20480;-72
2021/04/08 06:39:12;;;;;;;12.90;12.30;;;7.10;99.90;;;;;;5133429;27;20500;-72
2021/04/08 06:41:40;;;;;;;15.87;14.60;;;7.10;99.40;;;;;;5133274;27;20448;-72
2021/04/08 06:44:08;;;;;;;13.90;12.97;;;6.80;99.10;;;;;;5133446;27;20454;-73
2021/04/08 06:46:36;;;;;;;13.40;12.60;;;6.90;98.10;;;;;;5133057;27;20450;-70
2021/04/08 06:49:09;;;;;;;13.80;12.80;;;7.00;98.30;;;;;;5133195;27;20460;-70
2021/04/08 06:51:38;;;;;;;12.93;11.97;;;7.30;98.00;;;;;;5133337;27;20524;-70
2021/04/08 06:54:06;;;;;;;14.73;13.87;;;7.40;97.00;;;;;;5132963;27;20848;-70
2021/04/08 06:56:34;;;;;;;15.00;14.10;;;7.80;96.20;;;;;;5132956;27;20491;-71
2021/04/08 06:59:01;;;;;;;13.33;12.43;;;8.40;97.30;;;;;;5132776;27;20444;-71
2021/04/08 07:01:28;;;;;;;14.87;13.77;;;8.80;95.30;;;;;;5133098;27;20496;-71
2021/04/08 07:03:55;;;;;;;14.53;13.53;;;9.30;94.30;;;;;;5132797;27;21030;-71
2021/04/08 07:06:22;;;;;;;14.30;13.50;;;9.90;91.90;;;;;;5132838;27;20455;-70
2021/04/08 07:08:48;;;;;;;16.40;15.60;;;10.00;88.10;;;;;;5132753;27;20495;-70
2021/04/08 07:11:15;;;;;;;14.63;13.73;;;10.50;89.20;;;;;;5132680;27;21013;-70
2021/04/08 07:13:42;;;;;;;14.43;13.60;;;11.00;82.50;;;;;;5132616;27;20455;-71
2021/04/08 07:16:09;;;;;;;14.50;13.60;;;10.90;81.10;;;;;;5132616;27;20503;-70
2021/04/08 07:18:35;;;;;;;14.83;13.93;;;11.00;80.00;;;;;;5132229;27;20485;-70
2021/04/08 07:21:01;;;;;;;14.27;13.57;;;11.10;78.90;;;;;;5132594;27;20445;-71
2021/04/08 07:23:28;;;;;;;15.60;14.73;;;10.50;82.70;;;;;;5132551;27;20460;-71
2021/04/08 07:26:01;;;;;;;15.60;14.80;;;10.50;82.60;;;;;;5132414;27;20517;-72
2021/04/08 07:28:35;;;;;;;14.87;13.80;;;10.90;83.20;;;;;;5132647;27;20572;-71
2021/04/08 07:31:23;;;;;;;15.13;14.20;;;11.30;76.30;;;;;;5132508;27;20452;-70
2021/04/08 07:33:50;;;;;;;14.63;13.87;;;11.10;73.50;;;;;;5132473;27;21016;-72
2021/04/08 07:36:27;;;;;;;14.80;14.00;;;11.20;73.00;;;;;;5132254;27;20495;-70
2021/04/08 07:38:53;;;;;;;15.40;14.70;;;10.90;72.10;;;;;;5132417;27;20452;-70
2021/04/08 07:41:25;;;;;;;15.87;15.03;;;10.90;73.50;;;;;;5132204;27;21075;-70
2021/04/08 07:44:00;;;;;;;15.87;14.90;;;11.50;73.70;;;;;;5132052;27;20457;-73
2021/04/08 07:46:31;;;;;;;14.43;13.43;;;12.40;65.60;;;;;;5132173;27;20447;-73
2021/04/08 07:48:57;;;;;;;15.00;14.13;;;12.50;63.20;;;;;;5132052;27;20455;-71
2021/04/08 07:51:31;;;;;;;14.93;13.80;;;12.50;62.10;;;;;;5131940;27;20513;-71
2021/04/08 07:54:12;;;;;;;15.03;14.23;;;12.40;61.70;;;;;;5131879;27;20967;-70
2021/04/08 07:56:38;;;;;;;15.60;14.70;;;11.90;64.60;;;;;;5131764;27;20870;-71
2021/04/08 07:59:19;;;;;;;14.50;13.70;;;11.30;64.30;;;;;;5132322;27;20480;-71
2021/04/08 08:01:47;;;;;;;15.20;14.17;;;11.10;66.80;;;;;;5131952;27;20944;-70
2021/04/08 08:04:25;;;;;;;14.80;14.00;;;11.20;69.50;;;;;;5131876;27;20437;-72
2021/04/08 08:06:52;;;;;;;15.23;14.43;;;11.30;71.10;;;;;;5132055;27;20444;-72
2021/04/08 08:09:23;;;;;;;15.53;14.40;;;11.70;71.20;;;;;;5132115;27;20967;-73
2021/04/08 08:11:49;;;;;;;16.03;14.97;;;12.30;68.60;;;;;;5131920;27;20440;-73
2021/04/08 08:14:30;;;;;;;16.40;15.60;;;13.30;65.30;;;;;;5132028;27;20455;-72
2021/04/08 08:17:08;;;;;;;16.63;15.73;;;13.60;62.60;;;;;;5131803;27;21010;-72
2021/04/08 08:19:35;;;;;;;15.83;14.97;;;13.70;60.00;;;;;;5131919;27;20479;-72
2021/04/08 08:22:02;;;;;;;16.40;15.37;;;13.80;56.70;;;;;;5131985;27;20444;-72
2021/04/08 08:24:29;;;;;;;17.17;16.17;;;13.40;57.20;;;;;;5132072;27;20524;-72
2021/04/08 08:26:55;;;;;;;15.57;14.60;;;12.90;59.20;;;;;;5131919;27;20437;-73
2021/04/08 08:29:25;;;;;;;15.90;15.10;;;13.30;59.90;;;;;;5131842;27;20511;-72
2021/04/08 08:31:53;;;;;;;15.93;15.03;;;13.80;58.40;;;;;;5131532;27;20453;-73
2021/04/08 08:34:21;;;;;;;16.30;15.40;;;14.70;59.30;;;;;;5131798;27;20444;-72
2021/04/08 08:36:49;;;;;;;15.73;14.83;;;14.10;57.40;;;;;;5139061;27;20505;-73
2021/04/08 08:39:17;;;;;;;16.60;15.60;;;13.90;57.90;;;;;;5142291;27;20839;-72
2021/04/08 08:41:45;;;;;;;15.40;14.60;;;13.70;55.50;;;;;;5133109;28;20444;-73
2021/04/08 08:44:14;;;;;;;16.10;15.10;;;13.60;57.50;;;;;;5131789;27;20459;-73
2021/04/08 08:46:49;;;;;;;14.97;14.17;;;14.10;55.60;;;;;;5131849;27;20497;-72
2021/04/08 08:49:20;;;;;;;14.10;13.20;;;14.10;54.10;;;;;;5131977;28;20436;-72
2021/04/08 08:51:49;;;;;;;14.57;13.87;;;13.30;54.20;;;;;;5131536;27;20451;-72
2021/04/08 08:54:15;;;;;;;14.50;13.87;;;12.30;55.90;;;;;;5131654;27;20488;-72
2021/04/08 08:56:42;;;;;;;16.10;15.20;;;12.60;56.00;;;;;;5135688;27;20492;-72
2021/04/08 08:59:09;;;;;;;14.30;13.47;;;12.10;55.90;;;;;;5135522;27;20970;-71
2021/04/08 09:01:35;;;;;;;13.60;13.00;;;11.70;57.10;;;;;;5135484;27;20456;-71
2021/04/08 09:04:04;;;;;;;13.30;12.70;;;11.60;56.30;;;;;;5135362;27;20492;-71
2021/04/08 09:06:31;;;;;;;14.13;13.50;;;10.90;57.80;;;;;;5135486;27;20444;-71
2021/04/08 09:09:02;;;;;;;14.10;12.97;;;10.30;59.80;;;;;;5135362;27;20460;-71
2021/04/08 09:11:31;;;;;;;14.23;13.37;;;10.50;60.10;;;;;;5135450;27;20508;-71
2021/04/08 09:13:59;;;;;;;14.67;13.60;;;11.60;60.00;;;;;;5135558;27;20456;-72
2021/04/08 09:16:28;;;;;;;14.40;13.40;;;13.20;58.00;;;;;;5135293;27;21079;-72
2021/04/08 09:18:58;;;;;;;13.13;12.53;;;14.10;54.20;;;;;;5135158;27;20480;-72
2021/04/08 09:21:26;;;;;;;13.77;12.90;;;13.80;53.90;;;;;;5135238;27;20451;-72
2021/04/08 09:24:15;;;;;;;14.73;13.67;;;14.30;53.20;;;;;;5135421;27;20444;-71
2021/04/08 09:26:44;;;;;;;14.83;13.97;;;14.30;53.60;;;;;;5135185;27;20451;-72
2021/04/08 09:29:11;;;;;;;14.30;13.60;;;15.10;52.70;;;;;;5135025;27;20448;-72
2021/04/08 09:31:38;;;;;;;13.33;12.73;;;14.70;52.10;;;;;;5135240;27;20509;-71
2021/04/08 09:34:05;;;;;;;14.30;13.60;;;14.10;51.50;;;;;;5135257;27;20531;-71
2021/04/08 09:36:37;;;;;;;13.93;13.23;;;13.30;52.60;;;;;;5134814;27;21050;-71
2021/04/08 09:39:23;;;;;;;14.27;13.57;;;12.90;54.10;;;;;;5134832;27;20444;-72
2021/04/08 09:41:54;;;;;;;14.17;13.47;;;12.20;55.20;;;;;;5134983;27;20444;-71
2021/04/08 09:44:21;;;;;;;14.27;13.50;;;11.80;56.40;;;;;;5134873;27;20830;-72
2021/04/08 09:46:50;;;;;;;13.23;12.53;;;12.50;57.60;;;;;;5134678;27;20493;-70
2021/04/08 09:49:48;;;;;;;13.27;12.47;;;13.00;55.40;;;;;;5134672;27;20457;-70
2021/04/08 09:52:16;;;;;;;13.33;12.60;;;13.30;53.90;;;;;;5134418;27;20980;-70
2021/04/08 09:54:46;;;;;;;13.93;13.00;;;12.50;53.30;;;;;;5134498;27;20960;-70
2021/04/08 09:57:33;;;;;;;14.60;13.90;;;12.10;54.70;;;;;;5134646;27;20483;-69
2021/04/08 10:00:00;;;;;;;14.63;13.83;;;11.50;55.80;;;;;;5134320;27;20967;-69
2021/04/08 10:02:27;;;;;;;13.63;12.93;;;11.00;58.70;;;;;;5134293;27;20440;-69
2021/04/08 10:05:08;;;;;;;14.67;13.87;;;11.00;59.60;;;;;;5134182;27;20440;-69
2021/04/08 10:07:49;;;;;;;14.00;13.20;;;11.10;59.50;;;;;;5132995;27;20842;-69
2021/04/08 10:10:15;;;;;;;14.33;13.33;;;11.00;59.50;;;;;;5134504;27;20472;-69
2021/04/08 10:12:41;;;;;;;14.40;13.70;;;10.70;60.50;;;;;;5134322;27;20850;-69
2021/04/08 10:15:09;;;;;;;13.20;12.17;;;10.70;60.10;;;;;;5133824;27;20443;-69
2021/04/08 10:17:37;;;;;;;14.50;13.33;;;10.80;60.30;;;;;;5133971;27;20474;-68
2021/04/08 10:20:05;;;;;;;14.13;12.93;;;10.80;60.00;;;;;;5133638;27;20480;-69
2021/04/08 10:22:40;;;;;;;14.50;12.70;;;10.60;60.00;;;;;;5133935;27;20455;-69
2021/04/08 10:25:08;;;;;;;13.13;12.43;;;10.60;60.60;;;;;;5134220;27;20946;-68
2021/04/08 10:27:35;;;;;;;13.50;12.60;;;10.20;60.40;;;;;;5133907;27;20656;-68
2021/04/08 10:30:12;;;;;;;16.07;14.77;;;10.20;61.70;;;;;;5133693;27;20505;-68
2021/04/08 10:32:39;;;;;;;14.10;13.30;;;10.30;61.70;;;;;;5133988;27;20921;-69
2021/04/08 10:35:17;;;;;;;14.73;13.67;;;10.30;59.90;;;;;;5133689;27;20650;-69
2021/04/08 10:37:43;;;;;;;14.80;13.90;;;10.20;61.00;;;;;;5133757;27;20866;-69
2021/04/08 10:40:11;;;;;;;14.23;12.63;;;10.10;60.60;;;;;;5133793;27;20451;-69
2021/04/08 10:42:37;;;;;;;13.83;12.93;;;10.00;60.70;;;;;;5133663;27;20530;-70
2021/04/08 10:45:08;;;;;;;13.50;12.60;;;10.30;60.80;;;;;;5133721;27;20460;-69
2021/04/08 10:47:36;;;;;;;13.83;13.03;;;10.80;60.80;;;;;;5133533;27;20456;-69
2021/04/08 10:50:05;;;;;;;14.80;13.73;;;11.20;59.30;;;;;;5133465;27;20566;-70
2021/04/08 10:52:34;;;;;;;13.17;12.43;;;11.50;59.20;;;;;;5133232;27;20452;-70
2021/04/08 10:55:02;;;;;;;13.97;12.60;;;11.70;57.60;;;;;;5133424;27;20814;-69
2021/04/08 10:57:30;;;;;;;14.50;13.60;;;12.00;57.10;;;;;;5133459;27;20444;-70
2021/04/08 10:59:56;;;;;;;15.10;13.90;;;11.80;57.00;;;;;;5133519;27;20456;-70
2021/04/08 11:02:25;;;;;;;15.13;14.07;;;11.40;57.90;;;;;;5133140;27;20440;-70
2021/04/08 11:04:52;;;;;;;15.17;14.07;;;11.10;58.80;;;;;;5133149;27;20457;-70
2021/04/08 11:07:19;;;;;;;16.50;14.87;;;10.50;59.50;;;;;;5133109;27;20544;-71
2021/04/08 11:09:45;;;;;;;14.50;13.70;;;10.20;60.40;;;;;;5133253;27;21012;-70
2021/04/08 11:12:18;;;;;;;14.33;13.37;;;10.10;61.10;;;;;;5133120;27;20445;-69
2021/04/08 11:14:50;;;;;;;15.03;14.13;;;9.90;62.10;;;;;;5133124;27;20448;-69
2021/04/08 11:17:17;;;;;;;15.00;14.00;;;10.30;61.20;;;;;;5132564;27;20492;-69
2021/04/08 11:19:44;;;;;;;14.67;13.77;;;10.60;60.60;;;;;;5133079;27;20472;-69
2021/04/08 11:22:15;;;;;;;16.67;15.47;;;10.70;60.50;;;;;;5132630;27;20444;-69
2021/04/08 11:24:43;;;;;;;14.07;13.17;;;10.50;59.80;;;;;;5133032;27;20455;-70
2021/04/08 11:27:10;;;;;;;16.47;15.37;;;10.50;60.60;;;;;;5132862;27;20440;-69
2021/04/08 11:29:36;;;;;;;15.50;14.50;;;11.40;60.30;;;;;;5132460;27;20448;-70
2021/04/08 11:32:06;;;;;;;14.53;13.60;;;13.10;58.70;;;;;;5134071;27;20459;-69
2021/04/08 11:34:43;;;;;;;15.80;14.90;;;14.90;54.80;;;;;;5136449;27;20872;-70
2021/04/08 11:37:12;;;;;;;15.27;14.07;;;14.80;53.80;;;;;;5134657;27;20487;-70
2021/04/08 11:39:38;;;;;;;14.60;13.73;;;13.40;53.90;;;;;;5132601;27;20826;-69
2021/04/08 11:42:22;;;;;;;14.30;13.10;;;14.10;54.60;;;;;;5132588;27;20440;-70
2021/04/08 11:45:20;;;;;;;15.07;13.90;;;13.20;52.60;;;;;;5131785;27;20448;-70
2021/04/08 11:47:58;;;;;;;15.00;13.97;;;14.40;53.10;;;;;;5130508;27;20448;-70
2021/04/08 11:50:29;;;;;;;15.20;14.30;;;15.80;50.60;;;;;;5132720;27;20448;-69
2021/04/08 11:53:03;;;;;;;16.67;14.90;;;16.50;50.10;;;;;;5132540;27;20796;-69
2021/04/08 11:55:37;;;;;;;15.90;14.90;;;17.50;48.70;;;;;;5132341;27;20990;-69
2021/04/08 11:58:04;;;;;;;15.57;14.57;;;17.50;47.10;;;;;;5132461;27;20455;-70
2021/04/08 12:00:31;;;;;;;14.93;14.17;;;17.50;45.70;;;;;;5132524;27;20474;-70
2021/04/08 12:03:11;;;;;;;14.77;13.80;;;15.60;48.10;;;;;;5132331;27;20962;-70
2021/04/08 12:05:38;;;;;;;13.60;12.80;;;15.10;49.10;;;;;;5132312;27;20513;-70
2021/04/08 12:08:04;;;;;;;12.67;12.00;;;14.00;47.60;;;;;;5132372;27;20859;-70
2021/04/08 12:10:32;;;;;;;12.30;11.50;;;13.50;49.70;;;;;;5132543;27;20444;-70
2021/04/08 12:13:01;;;;;;;13.10;12.30;;;13.50;50.40;;;;;;5132576;27;20448;-70
2021/04/08 12:15:39;;;;;;;11.97;11.30;;;13.80;49.40;;;;;;5132483;27;20484;-71
2021/04/08 12:18:28;;;;;;;12.60;11.80;;;13.80;48.50;;;;;;5132319;27;20451;-71
2021/04/08 12:20:55;;;;;;;12.03;11.40;;;14.10;50.30;;;;;;5128047;27;20456;-70
2021/04/08 12:23:24;;;;;;;12.90;12.00;;;14.20;48.10;;;;;;5132255;27;20448;-71
2021/04/08 12:25:51;;;;;;;12.83;12.13;;;13.70;48.50;;;;;;5132152;27;20445;-69
2021/04/08 12:28:20;;;;;;;11.53;11.03;;;13.60;49.60;;;;;;5132237;27;20444;-69
2021/04/08 12:30:47;;;;;;;12.27;11.63;;;13.50;48.70;;;;;;5131252;27;20936;-69
2021/04/08 12:33:17;;;;;;;12.50;11.80;;;13.80;49.20;;;;;;5132080;27;20459;-70
2021/04/08 12:35:45;;;;;;;13.10;12.23;;;14.00;49.10;;;;;;5132190;27;20833;-70
2021/04/08 12:38:12;;;;;;;14.50;13.60;;;13.60;49.50;;;;;;5132181;27;20472;-70
2021/04/08 12:40:38;;;;;;;13.53;12.40;;;13.70;50.50;;;;;;5132095;27;20470;-70
2021/04/08 12:43:05;;;;;;;14.63;13.70;;;13.30;50.50;;;;;;5132270;27;20476;-69